createdAt,value
2022-08-30T00:01:30.761Z,99.90
2022-08-30T00:04:32.730Z,99.90
2022-08-30T00:07:35.137Z,99.90
2022-08-30T00:10:38.669Z,99.90
2022-08-30T00:13:42.597Z,99.90
2022-08-30T00:16:44.756Z,99.90
2022-08-30T00:19:46.689Z,99.90
2022-08-30T00:22:48.785Z,99.90
2022-08-30T00:25:50.652Z,99.90
2022-08-30T00:28:52.635Z,99.90
2022-08-30T00:31:54.524Z,99.90
2022-08-30T00:34:56.696Z,99.90
2022-08-30T00:37:58.823Z,99.90
2022-08-30T00:41:01.915Z,99.90
2022-08-30T00:44:04.525Z,99.90
2022-08-30T00:47:06.630Z,99.90
2022-08-30T00:50:10.261Z,99.90
2022-08-30T00:53:18.956Z,99.90
2022-08-30T00:56:23.436Z,99.90
2022-08-30T00:59:27.574Z,99.90
2022-08-30T01:02:31.319Z,99.90
2022-08-30T01:05:33.330Z,99.90
2022-08-30T01:08:35.705Z,99.90
2022-08-30T01:11:38.642Z,99.90
2022-08-30T01:14:40.670Z,99.90
2022-08-30T01:17:44.776Z,99.90
2022-08-30T01:21:01.401Z,99.90
2022-08-30T01:24:04.816Z,99.90
2022-08-30T01:27:06.715Z,99.90
2022-08-30T01:30:10.454Z,99.90
2022-08-30T01:33:13.372Z,99.90
2022-08-30T01:36:17.350Z,99.90
2022-08-30T01:39:19.425Z,99.90
2022-08-30T01:42:22.313Z,99.90
2022-08-30T01:45:24.270Z,99.90
2022-08-30T01:48:30.849Z,99.90
2022-08-30T01:51:33.303Z,99.90
2022-08-30T01:54:38.225Z,99.90
2022-08-30T01:57:41.430Z,99.90
2022-08-30T02:00:43.379Z,99.90
2022-08-30T02:03:46.415Z,99.90
2022-08-30T02:06:49.228Z,99.90
2022-08-30T02:09:52.375Z,99.90
2022-08-30T02:12:54.282Z,99.90
2022-08-30T02:15:56.397Z,99.90
2022-08-30T02:18:58.892Z,99.90
2022-08-30T02:22:00.834Z,99.90
2022-08-30T02:25:06.902Z,99.90
2022-08-30T02:28:14.963Z,99.90
2022-08-30T02:31:21.047Z,99.90
2022-08-30T02:34:23.146Z,99.90
2022-08-30T02:37:25.084Z,99.90
2022-08-30T02:40:27.075Z,99.90
2022-08-30T02:43:29.124Z,99.90
2022-08-30T02:46:33.422Z,99.90
2022-08-30T02:49:37.047Z,99.90
2022-08-30T02:52:38.975Z,99.90
2022-08-30T02:55:42.577Z,99.90
2022-08-30T02:58:46.268Z,99.90
2022-08-30T03:01:49.062Z,99.90
2022-08-30T03:04:51.259Z,99.90
2022-08-30T03:07:54.227Z,99.90
2022-08-30T03:10:57.277Z,99.90
2022-08-30T03:13:59.559Z,99.90
2022-08-30T03:17:01.592Z,99.90
2022-08-30T03:20:04.998Z,99.90
2022-08-30T03:23:06.899Z,99.90
2022-08-30T03:26:12.195Z,99.90
2022-08-30T03:29:14.124Z,99.90
2022-08-30T03:32:16.059Z,99.90
2022-08-30T03:35:18.664Z,99.90
2022-08-30T03:38:20.585Z,99.90
2022-08-30T03:41:22.527Z,99.90
2022-08-30T03:44:24.957Z,99.90
2022-08-30T03:47:26.853Z,99.90
2022-08-30T03:50:30.484Z,99.90
2022-08-30T03:53:32.828Z,99.90
2022-08-30T03:56:34.754Z,99.90
2022-08-30T03:59:36.699Z,99.90
2022-08-30T04:02:39.298Z,99.90
2022-08-30T04:05:41.272Z,99.90
2022-08-30T04:08:44.873Z,99.90
2022-08-30T04:11:47.780Z,99.90
2022-08-30T04:14:49.854Z,99.90
2022-08-30T04:17:53.842Z,99.90
2022-08-30T04:20:56.070Z,99.90
2022-08-30T04:23:57.973Z,99.90
2022-08-30T04:27:00.151Z,99.90
2022-08-30T04:30:03.558Z,99.90
2022-08-30T04:33:05.661Z,99.90
2022-08-30T04:36:09.322Z,99.90
2022-08-30T04:39:11.283Z,99.90
2022-08-30T04:42:13.236Z,99.90
2022-08-30T04:45:16.727Z,99.90
2022-08-30T04:48:18.917Z,99.90
2022-08-30T04:51:20.857Z,99.90
2022-08-30T04:54:22.813Z,99.90
2022-08-30T04:57:26.258Z,99.90
2022-08-30T05:00:28.241Z,99.90
2022-08-30T05:03:30.533Z,99.90
2022-08-30T05:06:32.429Z,99.90
2022-08-30T05:09:34.334Z,99.90
2022-08-30T05:12:36.218Z,99.90
2022-08-30T05:15:40.323Z,99.90
2022-08-30T05:18:42.227Z,99.90
2022-08-30T05:21:44.178Z,99.90
2022-08-30T05:24:46.070Z,99.90
2022-08-30T05:27:48.195Z,99.90
2022-08-30T05:30:50.122Z,99.90
2022-08-30T05:33:53.071Z,99.90
2022-08-30T05:36:55.010Z,99.90
2022-08-30T05:39:57.560Z,99.90
2022-08-30T05:43:00.280Z,99.90
2022-08-30T05:46:13.162Z,99.90
2022-08-30T05:49:15.820Z,99.90
2022-08-30T05:52:18.370Z,99.90
2022-08-30T05:55:20.418Z,99.90
2022-08-30T05:58:22.431Z,99.90
2022-08-30T06:01:30.122Z,99.90
2022-08-30T06:04:32.149Z,99.90
2022-08-30T06:07:35.178Z,99.90
2022-08-30T06:10:36.977Z,99.90
2022-08-30T06:13:40.033Z,99.90
2022-08-30T06:16:45.828Z,99.90
2022-08-30T06:19:47.935Z,99.90
2022-08-30T06:22:49.886Z,99.90
2022-08-30T06:25:51.764Z,99.90
2022-08-30T06:28:53.882Z,99.90
2022-08-30T06:31:58.367Z,99.90
2022-08-30T06:35:00.374Z,99.90
2022-08-30T06:38:02.787Z,99.90
2022-08-30T06:41:09.733Z,99.90
2022-08-30T06:44:11.645Z,99.90
2022-08-30T06:47:13.641Z,99.90
2022-08-30T06:50:17.592Z,99.90
2022-08-30T06:53:19.935Z,99.90
2022-08-30T06:56:23.787Z,99.90
2022-08-30T06:59:27.034Z,99.90
2022-08-30T07:02:29.273Z,99.90
2022-08-30T07:05:32.712Z,99.90
2022-08-30T07:08:34.984Z,99.90
2022-08-30T07:11:38.050Z,99.90
2022-08-30T07:14:40.678Z,99.90
2022-08-30T07:18:01.268Z,99.90
2022-08-30T07:21:15.880Z,99.90
2022-08-30T07:24:18.765Z,99.90
2022-08-30T07:27:20.946Z,99.90
2022-08-30T07:30:23.441Z,99.90
2022-08-30T07:33:25.582Z,99.90
2022-08-30T07:36:27.523Z,99.90
2022-08-30T07:39:29.446Z,99.90
2022-08-30T07:42:34.176Z,99.90
2022-08-30T07:45:38.331Z,99.90
2022-08-30T07:48:40.276Z,99.50
2022-08-30T07:51:42.525Z,99.90
2022-08-30T07:54:44.578Z,99.90
2022-08-30T07:57:47.733Z,99.40
2022-08-30T08:00:49.698Z,99.90
2022-08-30T08:03:52.123Z,98.40
2022-08-30T08:06:55.101Z,97.90
2022-08-30T08:09:57.001Z,98.50
2022-08-30T08:12:59.291Z,98.30
2022-08-30T08:16:01.345Z,98.30
2022-08-30T08:19:08.570Z,98.70
2022-08-30T08:22:25.755Z,96.90
2022-08-30T08:25:27.793Z,96.30
2022-08-30T08:28:30.035Z,96.00
2022-08-30T08:31:33.767Z,94.30
2022-08-30T08:34:36.757Z,94.40
2022-08-30T08:37:39.466Z,94.50
2022-08-30T08:40:55.687Z,94.60
2022-08-30T08:43:58.079Z,94.50
2022-08-30T08:47:13.928Z,92.50
2022-08-30T08:50:20.113Z,93.20
2022-08-30T08:53:46.217Z,93.70
2022-08-30T08:56:48.996Z,94.60
2022-08-30T08:59:54.352Z,93.30
2022-08-30T09:03:03.063Z,93.60
2022-08-30T09:06:15.073Z,92.90
2022-08-30T09:09:20.524Z,92.30
2022-08-30T09:12:24.766Z,92.10
2022-08-30T09:15:33.188Z,90.70
2022-08-30T09:18:52.664Z,90.60
2022-08-30T09:22:31.261Z,89.80
2022-08-30T09:25:33.162Z,90.40
2022-08-30T09:28:50.506Z,89.90
2022-08-30T09:32:22.486Z,90.30
2022-08-30T09:35:34.761Z,89.40
2022-08-30T09:38:36.798Z,88.50
2022-08-30T09:41:42.386Z,88.70
2022-08-30T09:44:44.267Z,88.30
2022-08-30T09:47:46.194Z,88.50
2022-08-30T09:50:55.010Z,89.10
2022-08-30T09:54:20.577Z,88.20
2022-08-30T09:57:39.607Z,87.70
2022-08-30T10:00:50.893Z,87.00
2022-08-30T10:04:08.430Z,87.60
2022-08-30T10:07:22.815Z,86.00
2022-08-30T10:10:45.623Z,88.30
2022-08-30T10:14:12.536Z,85.40
2022-08-30T10:17:41.883Z,87.00
2022-08-30T10:20:52.882Z,86.10
2022-08-30T10:24:02.901Z,86.10
2022-08-30T10:27:19.221Z,86.20
2022-08-30T10:30:24.107Z,86.30
2022-08-30T10:33:42.709Z,86.60
2022-08-30T10:36:50.934Z,85.50
2022-08-30T10:40:28.323Z,84.10
2022-08-30T10:43:51.157Z,84.50
2022-08-30T10:47:14.434Z,83.50
2022-08-30T10:50:42.575Z,83.30
2022-08-30T10:53:53.610Z,81.80
2022-08-30T10:56:56.500Z,81.20
2022-08-30T11:00:07.322Z,78.30
2022-08-30T11:03:42.733Z,79.10
2022-08-30T11:06:56.472Z,77.30
2022-08-30T11:10:16.157Z,79.90
2022-08-30T11:13:23.193Z,81.00
2022-08-30T11:16:37.392Z,78.90
2022-08-30T11:19:41.679Z,78.70
2022-08-30T11:23:18.850Z,76.50
2022-08-30T11:26:51.495Z,76.50
2022-08-30T11:29:53.443Z,75.80
2022-08-30T11:33:02.448Z,75.00
2022-08-30T11:36:04.417Z,75.20
2022-08-30T11:39:09.941Z,75.00
2022-08-30T11:42:17.920Z,75.00
2022-08-30T11:45:26.760Z,74.50
2022-08-30T11:48:54.277Z,73.90
2022-08-30T11:52:27.937Z,73.30
2022-08-30T11:55:38.156Z,73.60
2022-08-30T11:59:16.326Z,73.50
2022-08-30T12:03:01.573Z,74.70
2022-08-30T12:06:07.656Z,74.10
2022-08-30T12:09:30.796Z,72.60
2022-08-30T12:12:39.398Z,71.60
2022-08-30T12:16:06.359Z,71.50
2022-08-30T12:19:20.877Z,71.50
2022-08-30T12:22:23.107Z,72.50
2022-08-30T12:25:33.604Z,72.50
2022-08-30T12:28:37.474Z,72.30
2022-08-30T12:31:49.925Z,72.10
2022-08-30T12:34:55.714Z,72.10
2022-08-30T12:38:05.991Z,72.20
2022-08-30T12:41:08.059Z,73.90
2022-08-30T12:44:23.294Z,75.70
2022-08-30T12:47:41.984Z,76.70
2022-08-30T12:50:57.059Z,76.60
2022-08-30T12:54:30.261Z,77.40
2022-08-30T12:57:42.959Z,77.90
2022-08-30T13:00:47.225Z,77.90
2022-08-30T13:04:23.143Z,78.80
2022-08-30T13:07:27.404Z,78.20
2022-08-30T13:10:29.335Z,78.80
2022-08-30T13:13:33.875Z,78.70
2022-08-30T13:16:40.338Z,77.80
2022-08-30T13:19:59.129Z,78.20
2022-08-30T13:23:07.589Z,77.00
2022-08-30T13:26:11.497Z,77.20
2022-08-30T13:29:18.035Z,77.00
2022-08-30T13:32:21.239Z,76.30
2022-08-30T13:35:24.002Z,75.40
2022-08-30T13:38:25.786Z,73.90
2022-08-30T13:41:30.114Z,72.10
2022-08-30T13:44:36.379Z,70.00
2022-08-30T13:47:46.926Z,69.00
2022-08-30T13:50:48.895Z,68.80
2022-08-30T13:53:53.301Z,67.10
2022-08-30T13:56:56.651Z,67.10
2022-08-30T13:59:59.184Z,66.30
2022-08-30T14:03:02.008Z,65.20
2022-08-30T14:06:31.853Z,65.60
2022-08-30T14:09:29.148Z,63.70
2022-08-30T14:19:19.247Z,65.90
2022-08-30T14:22:21.225Z,66.50
2022-08-30T14:25:23.520Z,63.30
2022-08-30T14:28:28.622Z,65.80
2022-08-30T14:31:32.612Z,63.90
2022-08-30T14:34:35.623Z,62.10
2022-08-30T14:37:37.555Z,63.00
2022-08-30T14:40:41.401Z,61.90
2022-08-30T14:43:43.699Z,61.90
2022-08-30T14:46:46.064Z,62.10
2022-08-30T14:49:47.986Z,62.00
2022-08-30T14:52:49.899Z,61.50
2022-08-30T14:55:51.882Z,62.50
2022-08-30T14:59:00.302Z,62.50
2022-08-30T15:02:03.344Z,60.20
2022-08-30T15:05:06.965Z,62.00
2022-08-30T15:08:10.480Z,61.30
2022-08-30T15:11:14.881Z,62.20
2022-08-30T15:14:17.320Z,61.60
2022-08-30T15:17:38.511Z,63.20
2022-08-30T15:20:50.142Z,64.00
2022-08-30T15:23:52.625Z,63.90
2022-08-30T15:26:54.716Z,64.40
2022-08-30T15:29:56.890Z,64.00
2022-08-30T15:32:58.795Z,64.50
2022-08-30T15:36:02.118Z,65.40
2022-08-30T15:39:07.365Z,65.80
2022-08-30T15:42:09.340Z,66.00
2022-08-30T15:45:13.913Z,66.00
2022-08-30T15:48:19.788Z,66.80
2022-08-30T15:51:22.862Z,66.60
2022-08-30T15:54:26.569Z,68.20
2022-08-30T15:57:28.855Z,68.00
2022-08-30T16:00:31.829Z,68.20
2022-08-30T16:03:35.419Z,69.50
2022-08-30T16:06:40.518Z,71.60
2022-08-30T16:09:43.828Z,73.00
2022-08-30T16:12:45.783Z,74.00
2022-08-30T16:15:47.733Z,74.30
2022-08-30T16:18:54.266Z,76.00
2022-08-30T16:21:57.223Z,76.50
2022-08-30T16:24:59.093Z,76.90
2022-08-30T16:28:01.518Z,77.40
2022-08-30T16:31:06.102Z,78.20
2022-08-30T16:34:10.522Z,78.10
2022-08-30T16:37:12.665Z,78.40
2022-08-30T16:40:14.832Z,79.00
2022-08-30T16:43:17.206Z,79.90
2022-08-30T16:46:22.954Z,80.90
2022-08-30T16:49:25.780Z,81.60
2022-08-30T16:52:27.789Z,82.00
2022-08-30T16:55:29.959Z,82.50
2022-08-30T16:58:32.002Z,82.40
2022-08-30T17:01:39.632Z,83.10
2022-08-30T17:04:43.997Z,83.10
2022-08-30T17:07:45.968Z,84.00
2022-08-30T17:10:49.908Z,84.80
2022-08-30T17:13:52.626Z,85.50
2022-08-30T17:16:54.684Z,85.80
2022-08-30T17:19:56.698Z,86.30
2022-08-30T17:22:59.521Z,86.60
2022-08-30T17:26:04.499Z,87.30
2022-08-30T17:29:07.799Z,88.20
2022-08-30T17:32:12.073Z,88.70
2022-08-30T17:35:14.903Z,89.00
2022-08-30T17:38:20.511Z,89.10
2022-08-30T17:41:22.629Z,89.20
2022-08-30T17:44:29.062Z,89.00
2022-08-30T17:47:32.388Z,89.40
2022-08-30T17:50:38.455Z,90.10
2022-08-30T17:53:40.685Z,90.10
2022-08-30T17:56:43.723Z,90.30
2022-08-30T17:59:46.095Z,90.60
2022-08-30T18:02:48.123Z,90.10
2022-08-30T18:05:50.945Z,90.30
2022-08-30T18:08:52.879Z,90.40
2022-08-30T18:11:56.466Z,90.60
2022-08-30T18:14:58.748Z,90.70
2022-08-30T18:18:00.891Z,90.70
2022-08-30T18:21:13.869Z,90.90
2022-08-30T18:24:16.827Z,91.20
2022-08-30T18:27:18.871Z,91.40
2022-08-30T18:30:21.032Z,91.50
2022-08-30T18:33:25.051Z,91.50
2022-08-30T18:36:28.283Z,91.70
2022-08-30T18:39:34.485Z,91.60
2022-08-30T18:42:36.993Z,91.90
2022-08-30T18:45:43.490Z,92.10
2022-08-30T18:48:46.770Z,92.40
2022-08-30T18:51:49.459Z,92.40
2022-08-30T18:58:15.016Z,92.30
2022-08-30T19:01:22.906Z,92.30
2022-08-30T19:04:35.132Z,92.50
2022-08-30T19:07:39.057Z,92.00
2022-08-30T19:10:41.772Z,92.00
2022-08-30T19:13:45.102Z,92.10
2022-08-30T19:16:47.187Z,92.30
2022-08-30T19:19:52.117Z,92.90
2022-08-30T19:23:09.294Z,92.90
2022-08-30T19:26:12.623Z,93.10
2022-08-30T19:29:16.453Z,93.10
2022-08-30T19:32:18.680Z,93.30
2022-08-30T19:35:22.091Z,93.40
2022-08-30T19:38:24.418Z,93.70
2022-08-30T19:41:28.407Z,93.70
2022-08-30T19:44:30.433Z,94.00
2022-08-30T19:47:34.127Z,94.00
2022-08-30T19:50:36.958Z,94.20
2022-08-30T19:53:40.901Z,94.40
2022-08-30T19:56:43.655Z,94.60
2022-08-30T19:59:45.664Z,94.80
2022-08-30T20:02:50.623Z,95.20
2022-08-30T20:05:53.404Z,95.00
2022-08-30T20:08:57.840Z,95.50
2022-08-30T20:12:01.583Z,95.60
2022-08-30T20:15:09.343Z,96.00
2022-08-30T20:18:13.474Z,97.30
2022-08-30T20:21:17.021Z,98.70
2022-08-30T20:24:19.621Z,98.90
2022-08-30T20:24:29.874Z,92.30
2022-08-30T20:27:21.538Z,98.80
2022-08-30T20:30:23.452Z,99.00
2022-08-30T20:33:26.890Z,99.10
2022-08-30T20:36:29.152Z,99.80
2022-08-30T20:39:31.558Z,99.90
2022-08-30T20:42:33.638Z,99.90
2022-08-30T20:45:37.228Z,99.90
2022-08-30T20:48:39.661Z,99.90
2022-08-30T20:51:42.481Z,99.90
2022-08-30T20:54:45.088Z,99.90
2022-08-30T20:57:47.337Z,99.90
2022-08-30T21:00:53.983Z,99.90
2022-08-30T21:03:55.993Z,99.90
2022-08-30T21:07:02.324Z,99.90
2022-08-30T21:10:05.644Z,99.90
2022-08-30T21:13:09.159Z,99.90
2022-08-30T21:16:12.388Z,99.90
2022-08-30T21:19:14.389Z,99.90
2022-08-30T21:22:16.296Z,99.90
2022-08-30T21:25:18.586Z,99.90
2022-08-30T21:28:20.547Z,99.90
2022-08-30T21:31:26.576Z,99.90
2022-08-30T21:34:28.542Z,99.90
2022-08-30T21:37:35.910Z,99.90
2022-08-30T21:40:38.291Z,99.90
2022-08-30T21:43:40.402Z,99.90
2022-08-30T21:46:43.639Z,99.90
2022-08-30T21:49:45.711Z,99.90
2022-08-30T21:52:48.327Z,99.90
2022-08-30T21:55:51.011Z,99.90
2022-08-30T21:58:54.884Z,99.90
2022-08-30T22:01:56.981Z,99.90
2022-08-30T22:04:59.330Z,99.90
2022-08-30T22:08:01.656Z,99.90
2022-08-30T22:11:08.323Z,99.90
2022-08-30T22:14:11.975Z,99.90
2022-08-30T22:17:14.002Z,99.90
2022-08-30T22:20:18.711Z,99.90
2022-08-30T22:23:20.941Z,99.90
2022-08-30T22:26:24.101Z,99.90
2022-08-30T22:29:26.014Z,99.90
2022-08-30T22:32:28.735Z,99.90
2022-08-30T22:35:30.729Z,99.90
2022-08-30T22:38:32.991Z,99.90
2022-08-30T22:41:36.189Z,99.90
2022-08-30T22:44:38.141Z,99.90
2022-08-30T22:47:40.121Z,99.90
2022-08-30T22:50:42.324Z,99.90
2022-08-30T22:53:45.534Z,99.90
2022-08-30T22:56:47.511Z,99.90
2022-08-30T22:59:49.604Z,99.90
2022-08-30T23:02:53.124Z,99.90
2022-08-30T23:05:55.345Z,99.90
2022-08-30T23:08:57.817Z,99.90
2022-08-30T23:11:59.848Z,99.90
2022-08-30T23:15:01.727Z,99.90
2022-08-30T23:18:04.503Z,99.90
2022-08-30T23:21:18.339Z,99.90
2022-08-30T23:24:38.550Z,99.90
2022-08-30T23:28:02.723Z,99.90
2022-08-30T23:31:36.271Z,99.90
2022-08-30T23:34:57.147Z,99.90
2022-08-30T23:38:21.397Z,99.90
2022-08-30T23:41:41.853Z,99.90
2022-08-30T23:45:02.496Z,99.90
2022-08-30T23:48:22.880Z,99.90
2022-08-30T23:51:43.225Z,99.90
2022-08-30T23:55:03.584Z,99.90
2022-08-30T23:58:24.026Z,99.90
